Time;durP1;ratioP1;P1;durP2;ratioP2;P2;SDS_P1;SDS_P2;PMS_P1;PMS_P2;Temp;Humidity;BMP_temperature;BMP_pressure;BME280_temperature;BME280_humidity;BME280_pressure;Samples;Min_cycle;Max_cycle;Signal;HPM_P1;HPM_P2
2023/05/15 00:00:17;;;;;;;85.93;44.75;;;;;;;;;;5016444;28;20041;-74
2023/05/15 00:02:43;;;;;;;85.00;45.25;;;;;;;;;;5009536;28;20117;-73
2023/05/15 00:05:11;;;;;;;91.68;48.28;;;;;;;;;;5021799;28;20026;-75
2023/05/15 00:07:37;;;;;;;101.57;49.08;;;;;;;;;;5022147;28;20040;-74
2023/05/15 00:10:03;;;;;;;112.05;51.85;;;;;;;;;;5004843;28;20132;-73
2023/05/15 00:12:29;;;;;;;92.88;46.80;;;;;;;;;;5023232;28;20044;-74
2023/05/15 00:14:55;;;;;;;121.03;51.85;;;;;;;;;;5017396;28;20061;-74
2023/05/15 00:17:22;;;;;;;107.57;51.92;;;;;;;;;;5003114;28;20407;-73
2023/05/15 00:19:48;;;;;;;120.47;53.33;;;;;;;;;;5025492;28;20037;-74
2023/05/15 00:22:14;;;;;;;126.97;54.53;;;;;;;;;;5019106;28;20033;-75
2023/05/15 00:24:40;;;;;;;121.10;53.70;;;;;;;;;;5026050;28;20083;-74
2023/05/15 00:27:06;;;;;;;128.35;53.38;;;;;;;;;;5026750;28;20029;-74
2023/05/15 00:29:32;;;;;;;147.80;57.10;;;;;;;;;;5022373;28;20041;-74
2023/05/15 00:31:59;;;;;;;159.32;57.38;;;;;;;;;;5021323;28;20030;-75
2023/05/15 00:34:25;;;;;;;155.98;59.03;;;;;;;;;;5022807;28;20064;-74
2023/05/15 00:36:52;;;;;;;155.18;58.25;;;;;;;;;;5018382;28;20048;-74
2023/05/15 00:39:18;;;;;;;177.55;61.05;;;;;;;;;;5004512;28;20398;-73
2023/05/15 00:41:46;;;;;;;151.80;59.53;;;;;;;;;;5024061;28;20025;-75
2023/05/15 00:44:12;;;;;;;177.90;62.50;;;;;;;;;;5023404;28;20022;-74
2023/05/15 00:46:39;;;;;;;183.38;63.75;;;;;;;;;;5023954;28;20124;-74
2023/05/15 00:49:05;;;;;;;177.85;62.38;;;;;;;;;;5022138;28;20030;-74
2023/05/15 00:51:32;;;;;;;167.43;61.08;;;;;;;;;;5023423;28;20423;-74
2023/05/15 00:53:58;;;;;;;172.18;64.45;;;;;;;;;;5021974;28;20037;-74
2023/05/15 00:56:27;;;;;;;182.57;65.13;;;;;;;;;;5023161;28;20022;-74
2023/05/15 00:58:54;;;;;;;196.02;65.07;;;;;;;;;;5021491;28;20053;-73
2023/05/15 01:01:20;;;;;;;193.38;68.45;;;;;;;;;;5020671;28;20068;-73
2023/05/15 01:03:46;;;;;;;192.52;66.28;;;;;;;;;;5005404;28;20125;-74
2023/05/15 01:06:13;;;;;;;205.68;70.07;;;;;;;;;;5008853;28;20029;-73
2023/05/15 01:08:49;;;;;;;226.98;72.80;;;;;;;;;;5022705;28;20067;-73
2023/05/15 01:11:16;;;;;;;217.68;71.28;;;;;;;;;;5021526;28;20045;-73
2023/05/15 01:13:43;;;;;;;200.95;67.70;;;;;;;;;;4988828;28;20052;-73
2023/05/15 01:16:09;;;;;;;211.75;68.38;;;;;;;;;;5023574;28;20034;-74
2023/05/15 01:18:36;;;;;;;233.98;71.78;;;;;;;;;;5033641;28;20033;-75
2023/05/15 01:21:02;;;;;;;246.38;72.10;;;;;;;;;;5024847;28;20120;-75
2023/05/15 01:23:47;;;;;;;246.98;75.38;;;;;;;;;;5018745;28;20022;-73
2023/05/15 01:26:21;;;;;;;254.15;73.65;;;;;;;;;;5020331;28;20030;-74
2023/05/15 01:29:10;;;;;;;275.20;77.55;;;;;;;;;;5019746;28;20778;-74
2023/05/15 01:31:37;;;;;;;255.40;76.30;;;;;;;;;;5020631;28;20036;-75
2023/05/15 01:34:06;;;;;;;267.80;75.07;;;;;;;;;;5022947;28;20038;-74
2023/05/15 01:36:37;;;;;;;277.60;79.88;;;;;;;;;;5019907;28;20030;-73
2023/05/15 01:39:04;;;;;;;250.95;74.20;;;;;;;;;;5006312;28;20032;-74
2023/05/15 01:41:50;;;;;;;275.20;78.85;;;;;;;;;;5022946;28;20013;-74
2023/05/15 01:44:26;;;;;;;272.55;77.60;;;;;;;;;;5019363;28;20210;-74
2023/05/15 01:46:55;;;;;;;245.40;73.03;;;;;;;;;;5016201;28;20037;-75
2023/05/15 01:49:23;;;;;;;278.73;79.47;;;;;;;;;;5016348;28;21404;-73
2023/05/15 01:51:52;;;;;;;277.58;75.57;;;;;;;;;;5001056;28;20032;-74
2023/05/15 01:54:19;;;;;;;272.15;76.15;;;;;;;;;;5023230;28;20148;-75
2023/05/15 01:56:45;;;;;;;252.25;75.03;;;;;;;;;;5018668;28;20116;-74
2023/05/15 01:59:13;;;;;;;280.35;77.63;;;;;;;;;;5020322;28;20033;-75
2023/05/15 02:01:40;;;;;;;273.95;79.55;;;;;;;;;;5016334;28;20037;-74
2023/05/15 02:04:08;;;;;;;275.08;77.63;;;;;;;;;;5021291;28;20116;-75
2023/05/15 02:06:34;;;;;;;274.38;78.60;;;;;;;;;;5020480;28;20048;-74
2023/05/15 02:09:01;;;;;;;248.18;72.97;;;;;;;;;;5021688;28;20033;-73
2023/05/15 02:11:28;;;;;;;261.92;74.47;;;;;;;;;;5020740;28;20475;-73
2023/05/15 02:13:54;;;;;;;250.43;74.95;;;;;;;;;;5013740;28;20041;-73
2023/05/15 02:16:21;;;;;;;231.38;70.40;;;;;;;;;;5016003;28;20033;-74
2023/05/15 02:18:47;;;;;;;262.33;73.85;;;;;;;;;;5006096;28;20990;-74
2023/05/15 02:21:14;;;;;;;250.57;73.10;;;;;;;;;;5022535;28;20390;-75
2023/05/15 02:23:41;;;;;;;252.25;73.07;;;;;;;;;;5017569;28;20033;-74
2023/05/15 02:26:13;;;;;;;259.85;74.55;;;;;;;;;;5021810;28;20128;-74
2023/05/15 02:28:48;;;;;;;285.23;76.57;;;;;;;;;;5022025;28;20485;-74
2023/05/15 02:31:19;;;;;;;263.48;72.03;;;;;;;;;;5019768;28;20041;-74
2023/05/15 02:33:58;;;;;;;261.00;71.53;;;;;;;;;;5020544;28;20030;-74
2023/05/15 02:36:29;;;;;;;311.05;76.60;;;;;;;;;;5022174;28;20116;-74
2023/05/15 02:38:55;;;;;;;;;;;;;;;;;;5004163;28;20032;-73
2023/05/15 02:41:22;;;;;;;346.38;78.15;;;;;;;;;;5020978;28;20390;-74
2023/05/15 02:43:50;;;;;;;353.70;82.50;;;;;;;;;;5018582;28;20021;-73
2023/05/15 02:46:20;;;;;;;385.38;86.32;;;;;;;;;;5022074;28;20112;-74
2023/05/15 02:48:46;;;;;;;366.98;84.22;;;;;;;;;;5019520;28;20048;-75
2023/05/15 02:51:13;;;;;;;401.75;83.13;;;;;;;;;;5007736;28;20125;-74
2023/05/15 02:53:40;;;;;;;432.42;80.32;;;;;;;;;;5026603;28;20083;-74
2023/05/15 02:56:06;;;;;;;411.85;81.32;;;;;;;;;;5045095;28;20486;-74
2023/05/15 02:58:33;;;;;;;379.15;77.93;;;;;;;;;;5022237;28;20034;-75
2023/05/15 03:00:59;;;;;;;389.23;84.72;;;;;;;;;;5030109;28;20073;-74
2023/05/15 03:03:26;;;;;;;356.25;75.95;;;;;;;;;;5017941;28;20017;-74
2023/05/15 03:05:52;;;;;;;339.83;71.13;;;;;;;;;;5017337;28;20415;-74
2023/05/15 03:08:18;;;;;;;303.42;65.68;;;;;;;;;;5017536;28;20268;-73
2023/05/15 03:10:44;;;;;;;353.02;67.35;;;;;;;;;;5019643;28;20046;-74
2023/05/15 03:13:11;;;;;;;364.45;70.15;;;;;;;;;;5021472;28;20048;-75
2023/05/15 03:15:37;;;;;;;298.55;67.22;;;;;;;;;;5023494;28;20037;-76
2023/05/15 03:18:03;;;;;;;288.73;67.28;;;;;;;;;;5019921;28;20554;-74
2023/05/15 03:20:29;;;;;;;305.92;70.30;;;;;;;;;;5008630;28;20037;-74
2023/05/15 03:22:55;;;;;;;302.50;68.90;;;;;;;;;;5018916;28;20395;-74
2023/05/15 03:25:21;;;;;;;278.63;72.07;;;;;;;;;;5022656;28;20076;-73
2023/05/15 03:27:50;;;;;;;279.85;76.90;;;;;;;;;;5023098;28;20210;-75
2023/05/15 03:30:16;;;;;;;257.35;76.38;;;;;;;;;;5029540;28;20117;-73
2023/05/15 03:32:43;;;;;;;237.32;72.95;;;;;;;;;;5030606;28;20133;-73
2023/05/15 03:35:09;;;;;;;271.35;78.45;;;;;;;;;;4993118;28;20033;-74
2023/05/15 03:37:35;;;;;;;261.98;76.47;;;;;;;;;;5023545;28;20452;-74
2023/05/15 03:40:02;;;;;;;260.90;78.97;;;;;;;;;;5023223;28;20025;-73
2023/05/15 03:42:28;;;;;;;280.38;79.20;;;;;;;;;;5026476;28;20128;-73
2023/05/15 03:44:55;;;;;;;278.48;80.25;;;;;;;;;;5024735;28;20026;-73
2023/05/15 03:47:21;;;;;;;276.63;82.68;;;;;;;;;;5008983;28;20243;-74
2023/05/15 03:49:50;;;;;;;301.77;85.85;;;;;;;;;;5025790;28;20032;-75
2023/05/15 03:52:19;;;;;;;262.83;82.20;;;;;;;;;;5004901;28;20570;-75
2023/05/15 03:54:46;;;;;;;247.77;81.63;;;;;;;;;;5023653;28;20056;-74
2023/05/15 03:57:12;;;;;;;261.25;89.32;;;;;;;;;;5007509;28;20092;-73
2023/05/15 03:59:38;;;;;;;243.32;85.47;;;;;;;;;;5019840;28;20432;-74
2023/05/15 04:02:05;;;;;;;237.68;82.95;;;;;;;;;;5016524;28;20033;-74
2023/05/15 04:04:32;;;;;;;245.02;82.20;;;;;;;;;;5011374;28;20038;-75
2023/05/15 04:06:58;;;;;;;219.20;81.65;;;;;;;;;;5017672;28;20029;-74
2023/05/15 04:09:24;;;;;;;225.50;81.03;;;;;;;;;;5023833;28;20422;-75
2023/05/15 04:11:50;;;;;;;216.70;77.47;;;;;;;;;;5018718;28;20045;-74
2023/05/15 04:14:17;;;;;;;176.50;66.18;;;;;;;;;;5024418;28;20041;-75
2023/05/15 04:16:43;;;;;;;174.63;63.47;;;;;;;;;;5020984;28;20620;-74
2023/05/15 04:19:09;;;;;;;160.45;62.67;;;;;;;;;;5025313;28;20049;-72
2023/05/15 04:21:35;;;;;;;167.52;62.47;;;;;;;;;;5023303;28;20025;-75
2023/05/15 04:24:02;;;;;;;148.00;58.50;;;;;;;;;;5026047;28;20026;-73
2023/05/15 04:26:28;;;;;;;122.13;56.47;;;;;;;;;;5021973;28;20044;-72
2023/05/15 04:28:55;;;;;;;115.68;53.65;;;;;;;;;;5022428;28;20460;-73
2023/05/15 04:31:40;;;;;;;124.57;58.13;;;;;;;;;;5051310;28;20171;-73
2023/05/15 04:34:06;;;;;;;123.55;60.55;;;;;;;;;;5022945;28;20068;-73
2023/05/15 04:36:33;;;;;;;124.72;61.15;;;;;;;;;;5023181;28;20045;-73
2023/05/15 04:39:00;;;;;;;116.55;60.33;;;;;;;;;;5005993;28;20026;-74
2023/05/15 04:41:26;;;;;;;117.18;61.78;;;;;;;;;;5019384;28;20063;-74
2023/05/15 04:43:52;;;;;;;109.05;59.92;;;;;;;;;;5019990;28;20029;-74
2023/05/15 04:46:18;;;;;;;104.32;57.47;;;;;;;;;;5022350;28;20072;-74
2023/05/15 04:48:44;;;;;;;108.00;59.50;;;;;;;;;;5022833;28;20033;-74
2023/05/15 04:51:11;;;;;;;103.70;56.60;;;;;;;;;;5023405;28;20041;-74
2023/05/15 04:53:37;;;;;;;105.85;57.35;;;;;;;;;;5023817;28;20108;-74
2023/05/15 04:56:04;;;;;;;98.13;56.63;;;;;;;;;;5022709;28;20125;-73
2023/05/15 04:58:30;;;;;;;98.00;57.22;;;;;;;;;;5022330;28;20036;-74
2023/05/15 05:00:56;;;;;;;90.15;53.55;;;;;;;;;;5017944;28;20109;-75
2023/05/15 05:03:22;;;;;;;81.68;51.22;;;;;;;;;;5022817;28;20033;-74
2023/05/15 05:05:48;;;;;;;63.70;44.78;;;;;;;;;;5004832;28;20174;-75
2023/05/15 05:08:15;;;;;;;71.65;47.80;;;;;;;;;;5009023;28;20038;-74
2023/05/15 05:10:41;;;;;;;69.00;44.45;;;;;;;;;;5023527;28;20063;-74
2023/05/15 05:13:07;;;;;;;72.25;46.75;;;;;;;;;;5023240;28;20033;-74
2023/05/15 05:15:33;;;;;;;73.03;45.00;;;;;;;;;;5020961;28;20075;-76
2023/05/15 05:17:59;;;;;;;70.55;45.92;;;;;;;;;;5005010;28;20033;-74
2023/05/15 05:20:25;;;;;;;65.82;47.10;;;;;;;;;;5018230;28;20032;-73
2023/05/15 05:22:52;;;;;;;76.70;48.35;;;;;;;;;;5020423;28;20145;-74
2023/05/15 05:25:18;;;;;;;69.35;44.15;;;;;;;;;;5004800;28;20055;-74
2023/05/15 05:27:44;;;;;;;63.20;43.33;;;;;;;;;;5022011;28;20064;-74
2023/05/15 05:30:11;;;;;;;62.75;43.38;;;;;;;;;;5018621;28;20045;-75
2023/05/15 05:32:37;;;;;;;62.15;42.10;;;;;;;;;;5022805;28;20191;-75
2023/05/15 05:35:04;;;;;;;63.33;42.75;;;;;;;;;;5021531;28;20033;-74
2023/05/15 05:37:30;;;;;;;61.15;41.42;;;;;;;;;;5017567;28;20041;-75
2023/05/15 05:39:56;;;;;;;60.38;41.95;;;;;;;;;;5017446;28;20025;-75
2023/05/15 05:42:23;;;;;;;61.58;42.30;;;;;;;;;;5019129;28;20462;-75
2023/05/15 05:44:49;;;;;;;52.75;39.05;;;;;;;;;;5020626;28;20025;-78
2023/05/15 05:47:15;;;;;;;49.75;36.45;;;;;;;;;;5019191;28;20064;-74
2023/05/15 05:49:41;;;;;;;48.63;36.00;;;;;;;;;;5018927;28;20033;-75
2023/05/15 05:52:08;;;;;;;44.10;33.83;;;;;;;;;;5020779;28;20128;-74
2023/05/15 05:54:34;;;;;;;44.45;33.67;;;;;;;;;;5017508;28;20034;-75
2023/05/15 05:57:00;;;;;;;44.50;32.70;;;;;;;;;;5023348;28;20037;-73
2023/05/15 05:59:28;;;;;;;47.70;35.25;;;;;;;;;;5025948;28;20095;-75
2023/05/15 06:01:54;;;;;;;43.40;33.97;;;;;;;;;;5006368;28;20022;-74
2023/05/15 06:04:20;;;;;;;47.60;35.10;;;;;;;;;;5054885;28;20022;-75
2023/05/15 06:06:46;;;;;;;44.78;35.58;;;;;;;;;;5020494;28;20041;-74
2023/05/15 06:09:12;;;;;;;39.47;31.42;;;;;;;;;;5016535;28;20483;-73
2023/05/15 06:11:39;;;;;;;38.65;31.40;;;;;;;;;;4986580;28;20055;-75
2023/05/15 06:14:07;;;;;;;53.20;36.67;;;;;;;;;;5014763;28;20033;-74
2023/05/15 06:16:33;;;;;;;35.92;30.08;;;;;;;;;;5011643;28;20026;-74
2023/05/15 06:18:59;;;;;;;37.60;28.92;;;;;;;;;;5025067;28;20663;-75
2023/05/15 06:21:26;;;;;;;33.63;28.20;;;;;;;;;;5022208;28;20025;-75
2023/05/15 06:23:52;;;;;;;38.17;30.77;;;;;;;;;;5018436;28;20402;-74
2023/05/15 06:26:18;;;;;;;39.10;29.45;;;;;;;;;;5013492;28;20065;-75
2023/05/15 06:28:44;;;;;;;39.20;30.23;;;;;;;;;;5012216;28;20041;-76
2023/05/15 06:31:11;;;;;;;40.42;31.50;;;;;;;;;;5024216;28;20029;-76
2023/05/15 06:33:37;;;;;;;36.60;30.50;;;;;;;;;;5009764;28;20846;-76
2023/05/15 06:36:03;;;;;;;46.60;32.80;;;;;;;;;;5012851;28;20040;-75
2023/05/15 06:38:29;;;;;;;43.75;34.00;;;;;;;;;;5042182;28;20034;-76
2023/05/15 06:40:55;;;;;;;39.08;31.83;;;;;;;;;;5014752;28;20025;-76
2023/05/15 06:43:21;;;;;;;37.03;29.35;;;;;;;;;;5028618;28;20124;-76
2023/05/15 06:45:51;;;;;;;36.97;29.73;;;;;;;;;;5028037;28;20051;-74
2023/05/15 06:48:17;;;;;;;40.65;29.73;;;;;;;;;;4995767;28;20041;-76
2023/05/15 06:50:43;;;;;;;44.50;34.05;;;;;;;;;;5010304;28;20130;-74
2023/05/15 06:53:09;;;;;;;41.75;33.30;;;;;;;;;;5012869;28;20132;-74
2023/05/15 06:55:36;;;;;;;43.13;34.30;;;;;;;;;;5030182;28;20063;-75
2023/05/15 06:58:03;;;;;;;41.47;32.47;;;;;;;;;;5012267;28;20038;-75
2023/05/15 07:00:29;;;;;;;39.55;30.40;;;;;;;;;;5018964;28;20083;-74
2023/05/15 07:02:56;;;;;;;35.60;30.30;;;;;;;;;;5029380;28;20029;-75
2023/05/15 07:05:22;;;;;;;41.97;29.05;;;;;;;;;;5032817;28;20128;-75
2023/05/15 07:07:48;;;;;;;40.58;26.85;;;;;;;;;;5032408;28;20148;-75
2023/05/15 07:10:14;;;;;;;36.92;28.05;;;;;;;;;;5033390;28;20490;-75
2023/05/15 07:12:40;;;;;;;38.38;29.13;;;;;;;;;;5032204;28;20041;-76
2023/05/15 07:15:07;;;;;;;40.72;26.77;;;;;;;;;;5020452;28;20106;-74
2023/05/15 07:17:33;;;;;;;39.00;29.02;;;;;;;;;;5021753;28;20041;-74
2023/05/15 07:19:59;;;;;;;35.22;25.77;;;;;;;;;;5011852;28;20121;-75
2023/05/15 07:22:27;;;;;;;39.47;25.05;;;;;;;;;;5025879;28;20033;-75
2023/05/15 07:24:54;;;;;;;29.92;23.65;;;;;;;;;;5033442;28;20038;-74
2023/05/15 07:27:20;;;;;;;34.53;24.65;;;;;;;;;;5032024;28;20033;-75
2023/05/15 07:29:46;;;;;;;36.63;24.80;;;;;;;;;;5025477;28;20072;-75
2023/05/15 07:32:12;;;;;;;31.67;25.55;;;;;;;;;;5012792;28;20034;-75
2023/05/15 07:34:38;;;;;;;34.88;26.38;;;;;;;;;;5014057;28;20102;-75
2023/05/15 07:37:04;;;;;;;34.45;26.73;;;;;;;;;;5023733;28;20045;-74
2023/05/15 07:39:31;;;;;;;39.83;27.60;;;;;;;;;;5034015;28;20050;-75
2023/05/15 07:41:57;;;;;;;37.67;28.70;;;;;;;;;;5031751;28;20478;-74
2023/05/15 07:44:23;;;;;;;39.17;28.67;;;;;;;;;;5032892;28;20438;-75
2023/05/15 07:46:49;;;;;;;36.67;28.88;;;;;;;;;;5031068;28;20146;-75
2023/05/15 07:49:15;;;;;;;36.47;28.40;;;;;;;;;;5033240;28;20034;-75
2023/05/15 07:51:41;;;;;;;30.65;24.90;;;;;;;;;;5032310;28;20041;-76
2023/05/15 07:54:07;;;;;;;30.08;23.75;;;;;;;;;;5033042;28;20045;-75
2023/05/15 07:56:34;;;;;;;34.08;26.52;;;;;;;;;;5026975;28;20478;-74
2023/05/15 07:59:01;;;;;;;36.13;26.00;;;;;;;;;;5027409;28;20128;-74
2023/05/15 08:01:28;;;;;;;35.53;25.35;;;;;;;;;;5031216;28;20092;-74
2023/05/15 08:03:54;;;;;;;36.13;25.95;;;;;;;;;;5002317;28;20041;-74
2023/05/15 08:06:20;;;;;;;32.97;25.67;;;;;;;;;;5018703;28;20030;-74
2023/05/15 08:08:47;;;;;;;35.70;25.98;;;;;;;;;;5004671;28;20046;-75
2023/05/15 08:11:13;;;;;;;37.35;27.58;;;;;;;;;;5057603;28;20064;-74
2023/05/15 08:13:39;;;;;;;34.40;26.42;;;;;;;;;;5031922;28;20091;-73
2023/05/15 08:16:06;;;;;;;31.95;25.33;;;;;;;;;;5013664;28;20029;-76
2023/05/15 08:18:32;;;;;;;31.42;24.80;;;;;;;;;;5026957;28;20029;-75
2023/05/15 08:20:58;;;;;;;32.60;24.90;;;;;;;;;;5032198;28;20172;-75
2023/05/15 08:23:25;;;;;;;33.00;25.98;;;;;;;;;;5028292;28;20117;-75
2023/05/15 08:25:51;;;;;;;35.40;27.60;;;;;;;;;;5020952;28;20033;-75
2023/05/15 08:28:18;;;;;;;30.17;25.70;;;;;;;;;;5011059;28;20103;-76
2023/05/15 08:30:44;;;;;;;35.00;28.35;;;;;;;;;;5028553;28;20022;-75
2023/05/15 08:33:10;;;;;;;38.15;30.58;;;;;;;;;;5030712;28;20037;-75
2023/05/15 08:35:38;;;;;;;40.97;32.17;;;;;;;;;;5028613;28;20045;-75
2023/05/15 08:38:05;;;;;;;45.70;33.55;;;;;;;;;;5029416;28;20025;-75
2023/05/15 08:40:31;;;;;;;47.08;33.58;;;;;;;;;;5041023;28;20022;-75
2023/05/15 08:43:00;;;;;;;49.47;34.30;;;;;;;;;;5025674;28;20117;-75
2023/05/15 08:45:26;;;;;;;51.65;36.67;;;;;;;;;;5028474;28;20025;-75
2023/05/15 08:47:53;;;;;;;55.25;38.55;;;;;;;;;;5025888;28;20139;-75
2023/05/15 08:50:19;;;;;;;56.30;40.00;;;;;;;;;;5028273;28;20098;-74
2023/05/15 08:52:46;;;;;;;60.40;41.47;;;;;;;;;;5025688;28;20033;-76
2023/05/15 08:55:13;;;;;;;71.53;43.45;;;;;;;;;;5012175;28;20507;-75
2023/05/15 08:57:40;;;;;;;67.10;43.25;;;;;;;;;;5020100;28;20452;-75
2023/05/15 09:00:10;;;;;;;67.82;43.30;;;;;;;;;;5030302;28;20078;-74
2023/05/15 09:02:37;;;;;;;65.00;43.95;;;;;;;;;;5030292;28;20041;-74
2023/05/15 09:05:04;;;;;;;65.20;42.53;;;;;;;;;;5031141;28;20479;-74
2023/05/15 09:07:30;;;;;;;61.97;41.17;;;;;;;;;;5016281;28;20065;-74
2023/05/15 09:09:57;;;;;;;66.80;43.33;;;;;;;;;;5022206;28;20190;-75
2023/05/15 09:12:24;;;;;;;60.33;41.95;;;;;;;;;;5030086;28;20402;-75
2023/05/15 09:14:50;;;;;;;61.42;42.42;;;;;;;;;;5029966;28;20176;-73
2023/05/15 09:17:16;;;;;;;60.50;42.60;;;;;;;;;;5018383;28;20044;-76
2023/05/15 09:19:46;;;;;;;66.88;43.53;;;;;;;;;;5012548;28;20033;-75
2023/05/15 09:22:16;;;;;;;65.43;43.17;;;;;;;;;;5031226;28;20032;-75
2023/05/15 09:24:42;;;;;;;65.10;44.25;;;;;;;;;;5030032;28;20068;-75
2023/05/15 09:27:10;;;;;;;59.85;40.38;;;;;;;;;;5018281;28;20037;-75
2023/05/15 09:29:37;;;;;;;55.45;39.67;;;;;;;;;;5025895;28;20395;-75
2023/05/15 09:32:04;;;;;;;52.03;38.03;;;;;;;;;;5028911;28;20037;-74
2023/05/15 09:34:31;;;;;;;57.22;41.22;;;;;;;;;;5031235;28;20045;-75
2023/05/15 09:36:58;;;;;;;66.40;42.08;;;;;;;;;;5023846;28;20037;-74
2023/05/15 09:39:24;;;;;;;54.30;38.47;;;;;;;;;;5029304;28;20104;-75
2023/05/15 09:41:51;;;;;;;57.17;37.15;;;;;;;;;;5029724;28;20673;-75
2023/05/15 09:44:19;;;;;;;52.13;35.55;;;;;;;;;;5027539;28;20025;-75
2023/05/15 09:46:46;;;;;;;50.22;34.50;;;;;;;;;;5027190;28;20104;-75
2023/05/15 09:49:12;;;;;;;48.47;31.85;;;;;;;;;;5030040;28;20103;-74
2023/05/15 09:51:39;;;;;;;48.00;32.97;;;;;;;;;;5029666;28;20057;-75
2023/05/15 09:54:05;;;;;;;46.47;33.90;;;;;;;;;;5030330;28;20041;-75
2023/05/15 09:56:32;;;;;;;48.83;33.35;;;;;;;;;;5029213;28;20033;-75
2023/05/15 09:58:59;;;;;;;53.70;34.33;;;;;;;;;;5024058;28;20041;-74
2023/05/15 10:01:26;;;;;;;50.97;34.17;;;;;;;;;;5026432;28;20064;-74
2023/05/15 10:04:02;;;;;;;54.38;34.28;;;;;;;;;;5028936;28;20091;-75
2023/05/15 10:06:34;;;;;;;54.08;34.35;;;;;;;;;;5029844;28;20291;-73
2023/05/15 10:09:02;;;;;;;57.97;37.70;;;;;;;;;;5030542;28;20049;-74
2023/05/15 10:11:34;;;;;;;59.83;39.20;;;;;;;;;;5029441;28;20045;-74
2023/05/15 10:14:00;;;;;;;63.55;40.88;;;;;;;;;;5028977;28;20064;-74
2023/05/15 10:16:28;;;;;;;61.70;40.08;;;;;;;;;;5026295;28;20025;-74
2023/05/15 10:18:56;;;;;;;62.67;42.00;;;;;;;;;;5029065;28;20021;-75
2023/05/15 10:21:23;;;;;;;66.80;42.80;;;;;;;;;;5011950;28;20029;-75
2023/05/15 10:23:50;;;;;;;65.85;43.17;;;;;;;;;;5028527;28;20061;-75
2023/05/15 10:26:23;;;;;;;63.28;40.88;;;;;;;;;;5025813;28;20071;-75
2023/05/15 10:28:50;;;;;;;62.70;40.50;;;;;;;;;;5028645;28;20037;-74
2023/05/15 10:31:18;;;;;;;64.80;40.72;;;;;;;;;;5030501;28;20057;-74
2023/05/15 10:33:44;;;;;;;58.88;40.47;;;;;;;;;;5029687;28;20029;-73
2023/05/15 10:36:10;;;;;;;60.25;42.15;;;;;;;;;;5027881;28;20129;-75
2023/05/15 10:38:37;;;;;;;64.65;42.58;;;;;;;;;;5023447;28;20029;-75
2023/05/15 10:41:04;;;;;;;84.13;41.40;;;;;;;;;;5030338;28;20099;-75
2023/05/15 10:43:31;;;;;;;59.50;40.28;;;;;;;;;;5010580;28;20025;-75
2023/05/15 10:45:57;;;;;;;66.00;44.33;;;;;;;;;;5023289;28;20040;-76
2023/05/15 10:48:24;;;;;;;62.58;43.22;;;;;;;;;;5024249;28;20041;-77
2023/05/15 10:50:51;;;;;;;63.92;43.10;;;;;;;;;;5025638;28;20039;-75
2023/05/15 10:53:17;;;;;;;58.60;41.33;;;;;;;;;;5027350;28;20045;-74
2023/05/15 10:55:44;;;;;;;58.78;41.85;;;;;;;;;;5027393;28;20038;-74
2023/05/15 10:58:11;;;;;;;57.55;40.40;;;;;;;;;;5025021;28;20036;-73
2023/05/15 11:00:44;;;;;;;59.85;40.67;;;;;;;;;;5022917;28;20026;-73
2023/05/15 11:03:30;;;;;;;51.67;38.90;;;;;;;;;;5028287;28;20057;-75
2023/05/15 11:06:08;;;;;;;58.67;39.75;;;;;;;;;;5027153;28;20112;-74
2023/05/15 11:08:35;;;;;;;54.50;39.28;;;;;;;;;;5028695;28;20033;-74
2023/05/15 11:11:02;;;;;;;53.90;38.22;;;;;;;;;;5027146;28;20156;-75
2023/05/15 11:13:48;;;;;;;53.45;38.75;;;;;;;;;;5025725;28;20026;-74
2023/05/15 11:16:34;;;;;;;50.28;36.55;;;;;;;;;;5029586;28;20498;-74
2023/05/15 11:19:00;;;;;;;52.17;36.83;;;;;;;;;;5027584;28;20490;-74
2023/05/15 11:21:31;;;;;;;44.45;33.95;;;;;;;;;;5025963;28;20030;-74
2023/05/15 11:24:03;;;;;;;42.72;32.88;;;;;;;;;;5029154;28;20014;-73
2023/05/15 11:26:33;;;;;;;41.38;32.42;;;;;;;;;;5029268;28;20029;-74
2023/05/15 11:29:16;;;;;;;44.90;33.67;;;;;;;;;;5023401;28;20038;-73
2023/05/15 11:31:42;;;;;;;41.00;30.48;;;;;;;;;;5005945;28;20162;-74
2023/05/15 11:34:09;;;;;;;41.97;31.20;;;;;;;;;;5031818;28;20064;-73
2023/05/15 11:36:38;;;;;;;43.38;31.80;;;;;;;;;;5017906;28;20127;-75
2023/05/15 11:39:13;;;;;;;38.35;31.00;;;;;;;;;;5018241;28;20017;-76
2023/05/15 11:41:40;;;;;;;37.88;30.35;;;;;;;;;;5002225;28;20129;-75
2023/05/15 11:44:06;;;;;;;43.70;32.13;;;;;;;;;;5023381;28;20049;-73
2023/05/15 11:46:32;;;;;;;38.20;30.67;;;;;;;;;;5008737;28;20550;-75
2023/05/15 11:48:59;;;;;;;38.30;32.45;;;;;;;;;;5023323;28;20033;-73
2023/05/15 11:51:26;;;;;;;39.70;29.98;;;;;;;;;;5022363;28;20041;-74
2023/05/15 11:53:53;;;;;;;33.95;25.92;;;;;;;;;;5048800;28;20039;-74
2023/05/15 11:56:24;;;;;;;28.05;23.88;;;;;;;;;;5021845;28;20025;-75
2023/05/15 11:58:50;;;;;;;;;;;;;;;;;;5022879;28;20034;-75
2023/05/15 12:01:16;;;;;;;;;;;;;;;;;;5031338;28;19931;-75
2023/05/15 12:03:42;;;;;;;;;;;;;;;;;;5031509;28;20011;-76
2023/05/15 12:06:08;;;;;;;;;;;;;;;;;;5031637;28;20342;-75
2023/05/15 12:08:36;;;;;;;;;;;;;;;;;;5029882;28;19960;-76
2023/05/15 12:11:03;;;;;;;;;;;;;;;;;;5014024;28;19920;-75
2023/05/15 12:13:30;;;;;;;;;;;;;;;;;;5027850;28;19916;-75
2023/05/15 12:15:56;;;;;;;;;;;;;;;;;;5031809;28;19909;-73
2023/05/15 12:18:22;;;;;;;;;;;;;;;;;;5029240;28;20112;-74
2023/05/15 12:20:48;;;;;;;;;;;;;;;;;;5032494;28;19920;-74
2023/05/15 12:23:14;;;;;;;;;;;;;;;;;;5030898;28;19916;-74
2023/05/15 12:25:40;;;;;;;;;;;;;;;;;;5030027;28;19917;-75
2023/05/15 12:28:06;;;;;;;;;;;;;;;;;;5041693;28;19966;-76
2023/05/15 12:30:33;;;;;;;;;;;;;;;;;;5031594;28;19909;-76
2023/05/15 12:32:59;;;;;;;;;;;;;;;;;;5030947;28;20604;-76
2023/05/15 12:35:25;;;;;;;;;;;;;;;;;;5013243;28;20055;-75
2023/05/15 12:37:51;;;;;;;;;;;;;;;;;;5020868;28;19913;-74
2023/05/15 12:40:17;;;;;;;;;;;;;;;;;;5032125;28;20336;-76
2023/05/15 12:42:43;;;;;;;;;;;;;;;;;;5028881;28;19913;-75
2023/05/15 12:45:10;;;;;;;;;;;;;;;;;;5029851;28;19909;-74
2023/05/15 12:47:35;;;;;;;;;;;;;;;;;;5030075;28;19916;-74
2023/05/15 12:50:02;;;;;;;;;;;;;;;;;;5028172;28;19909;-74
2023/05/15 12:52:28;;;;;;;;;;;;;;;;;;5031511;28;19913;-75
2023/05/15 12:54:54;;;;;;;;;;;;;;;;;;5030863;28;19916;-74
2023/05/15 12:57:20;;;;;;;;;;;;;;;;;;5027747;28;19923;-74
2023/05/15 12:59:46;;;;;;;;;;;;;;;;;;5026527;28;19913;-74
2023/05/15 13:02:12;;;;;;;;;;;;;;;;;;5026436;28;20582;-74
2023/05/15 13:04:38;;;;;;;;;;;;;;;;;;5029592;28;19971;-75
2023/05/15 13:07:04;;;;;;;;;;;;;;;;;;5017827;28;19912;-75
2023/05/15 13:09:32;;;;;;;;;;;;;;;;;;5018042;28;19910;-74
2023/05/15 13:11:58;;;;;;;;;;;;;;;;;;5016357;28;19917;-75
2023/05/15 13:14:27;;;;;;;;;;;;;;;;;;5028890;28;19916;-75
2023/05/15 13:16:53;;;;;;;;;;;;;;;;;;5032035;28;19927;-75
2023/05/15 13:19:19;;;;;;;;;;;;;;;;;;5021717;28;19909;-78
2023/05/15 13:21:45;;;;;;;;;;;;;;;;;;5046037;28;19909;-76
2023/05/15 13:24:11;;;;;;;;;;;;;;;;;;5028105;28;20274;-77
2023/05/15 13:26:37;;;;;;;;;;;;;;;;;;5028326;28;20759;-75
2023/05/15 13:29:04;;;;;;;;;;;;;;;;;;5029851;28;20358;-77
2023/05/15 13:31:30;;;;;;;;;;;;;;;;;;5031587;28;19983;-76
2023/05/15 13:33:56;;;;;;;;;;;;;;;;;;5022845;28;19924;-78
2023/05/15 13:36:22;;;;;;;;;;;;;;;;;;5027875;28;19913;-77
2023/05/15 13:38:48;;;;;;;;;;;;;;;;;;5010726;28;19912;-77
2023/05/15 13:41:15;;;;;;;;;;;;;;;;;;5028630;28;19916;-77
2023/05/15 13:43:41;;;;;;;;;;;;;;;;;;5025539;28;19909;-77
2023/05/15 13:46:07;;;;;;;;;;;;;;;;;;5023735;28;20342;-76
2023/05/15 13:48:33;;;;;;;;;;;;;;;;;;5022931;28;19912;-75
2023/05/15 13:50:59;;;;;;;;;;;;;;;;;;5015010;28;19939;-76
2023/05/15 13:53:26;;;;;;;;;;;;;;;;;;5019396;28;19909;-80
2023/05/15 13:55:52;;;;;;;;;;;;;;;;;;5021725;28;19916;-75
2023/05/15 13:58:18;;;;;;;;;;;;;;;;;;5025059;28;19912;-75
2023/05/15 14:00:44;;;;;;;;;;;;;;;;;;5020636;28;20007;-76
2023/05/15 14:03:10;;;;;;;;;;;;;;;;;;5018790;28;20393;-76
2023/05/15 14:05:36;;;;;;;;;;;;;;;;;;5047552;28;19914;-75
2023/05/15 14:08:02;;;;;;;;;;;;;;;;;;5023928;28;19909;-77
2023/05/15 14:10:28;;;;;;;;;;;;;;;;;;5017011;28;19913;-75
2023/05/15 14:12:54;;;;;;;;;;;;;;;;;;5021075;28;19919;-76
2023/05/15 14:15:20;;;;;;;;;;;;;;;;;;5006924;28;20002;-74
2023/05/15 14:17:47;;;;;;;;;;;;;;;;;;5027953;28;19971;-74
2023/05/15 14:20:13;;;;;;;;;;;;;;;;;;5027411;28;20362;-76
2023/05/15 14:22:39;;;;;;;;;;;;;;;;;;5027857;28;19931;-77
2023/05/15 14:25:05;;;;;;;;;;;;;;;;;;5026412;28;19917;-74
2023/05/15 14:27:31;;;;;;;;;;;;;;;;;;5027884;28;20015;-75
2023/05/15 14:29:57;;;;;;;;;;;;;;;;;;5026028;28;19917;-75
2023/05/15 14:32:23;;;;;;;;;;;;;;;;;;5026709;28;19915;-76
2023/05/15 14:34:50;;;;;;;;;;;;;;;;;;5027660;28;19915;-76
2023/05/15 14:37:16;;;;;;;;;;;;;;;;;;5021174;28;20020;-75